sensor_id;sensor_type;location;lat;lon;timestamp;P1;durP1;ratioP1;P2;durP2;ratioP2
65377;SDS011;51982;51.042;13.806;2022-07-25T05:03:16;40.57;;;22.07;;
65377;SDS011;51982;51.042;13.806;2022-07-25T05:05:42;34.63;;;21.17;;
65377;SDS011;51982;51.042;13.806;2022-07-25T05:08:07;25.67;;;16.20;;
65377;SDS011;51982;51.042;13.806;2022-07-25T05:10:33;17.75;;;12.77;;
65377;SDS011;51982;51.042;13.806;2022-07-25T05:12:58;17.02;;;10.48;;
65377;SDS011;51982;51.042;13.806;2022-07-25T05:15:23;15.48;;;9.30;;
65377;SDS011;51982;51.042;13.806;2022-07-25T05:17:48;13.65;;;9.35;;
65377;SDS011;51982;51.042;13.806;2022-07-25T05:20:14;11.52;;;8.35;;
65377;SDS011;51982;51.042;13.806;2022-07-25T05:22:39;13.20;;;8.60;;
65377;SDS011;51982;51.042;13.806;2022-07-25T05:25:05;15.10;;;8.48;;
65377;SDS011;51982;51.042;13.806;2022-07-25T05:27:31;15.55;;;8.30;;
65377;SDS011;51982;51.042;13.806;2022-07-25T05:29:57;13.23;;;8.13;;
65377;SDS011;51982;51.042;13.806;2022-07-25T05:32:22;12.82;;;8.73;;
65377;SDS011;51982;51.042;13.806;2022-07-25T05:34:47;16.20;;;8.43;;
65377;SDS011;51982;51.042;13.806;2022-07-25T05:37:13;12.98;;;8.82;;
65377;SDS011;51982;51.042;13.806;2022-07-25T05:39:38;15.60;;;8.40;;
65377;SDS011;51982;51.042;13.806;2022-07-25T05:42:04;13.98;;;8.55;;
65377;SDS011;51982;51.042;13.806;2022-07-25T05:44:30;13.05;;;9.10;;
65377;SDS011;51982;51.042;13.806;2022-07-25T05:46:55;13.07;;;8.67;;
65377;SDS011;51982;51.042;13.806;2022-07-25T05:49:21;15.77;;;9.70;;
65377;SDS011;51982;51.042;13.806;2022-07-25T05:51:46;17.05;;;9.68;;
65377;SDS011;51982;51.042;13.806;2022-07-25T05:54:11;21.63;;;10.50;;
65377;SDS011;51982;51.042;13.806;2022-07-25T05:56:36;18.50;;;10.33;;
65377;SDS011;51982;51.042;13.806;2022-07-25T05:59:02;15.87;;;10.40;;
65377;SDS011;51982;51.042;13.806;2022-07-25T06:01:27;16.95;;;11.05;;
65377;SDS011;51982;51.042;13.806;2022-07-25T06:03:52;15.55;;;10.50;;
65377;SDS011;51982;51.042;13.806;2022-07-25T06:06:18;11.53;;;8.43;;
65377;SDS011;51982;51.042;13.806;2022-07-25T06:08:44;17.55;;;9.10;;
65377;SDS011;51982;51.042;13.806;2022-07-25T06:11:10;16.10;;;10.05;;
65377;SDS011;51982;51.042;13.806;2022-07-25T06:13:35;14.73;;;9.07;;
65377;SDS011;51982;51.042;13.806;2022-07-25T06:16:00;15.05;;;9.32;;
65377;SDS011;51982;51.042;13.806;2022-07-25T06:18:26;17.58;;;9.95;;
65377;SDS011;51982;51.042;13.806;2022-07-25T06:20:52;16.33;;;9.57;;
65377;SDS011;51982;51.042;13.806;2022-07-25T06:23:17;16.15;;;9.80;;
65377;SDS011;51982;51.042;13.806;2022-07-25T06:25:43;15.52;;;10.20;;
65377;SDS011;51982;51.042;13.806;2022-07-25T06:28:09;16.95;;;10.70;;
65377;SDS011;51982;51.042;13.806;2022-07-25T06:30:34;23.77;;;10.35;;
65377;SDS011;51982;51.042;13.806;2022-07-25T06:33:00;16.07;;;10.83;;
65377;SDS011;51982;51.042;13.806;2022-07-25T06:35:25;16.37;;;9.63;;
65377;SDS011;51982;51.042;13.806;2022-07-25T06:37:50;17.27;;;9.90;;
65377;SDS011;51982;51.042;13.806;2022-07-25T06:40:15;16.57;;;10.30;;
65377;SDS011;51982;51.042;13.806;2022-07-25T06:42:41;15.35;;;10.02;;
65377;SDS011;51982;51.042;13.806;2022-07-25T06:45:08;18.63;;;9.48;;
65377;SDS011;51982;51.042;13.806;2022-07-25T06:47:37;15.63;;;8.95;;
65377;SDS011;51982;51.042;13.806;2022-07-25T06:50:07;17.05;;;8.40;;
65377;SDS011;51982;51.042;13.806;2022-07-25T06:52:34;13.15;;;8.05;;
65377;SDS011;51982;51.042;13.806;2022-07-25T06:55:04;12.80;;;8.15;;
65377;SDS011;51982;51.042;13.806;2022-07-25T06:57:31;10.63;;;7.20;;
65377;SDS011;51982;51.042;13.806;2022-07-25T06:59:56;17.05;;;7.38;;
65377;SDS011;51982;51.042;13.806;2022-07-25T07:02:24;11.65;;;7.32;;
65377;SDS011;51982;51.042;13.806;2022-07-25T07:04:50;12.38;;;6.97;;
65377;SDS011;51982;51.042;13.806;2022-07-25T07:07:15;13.77;;;7.37;;
65377;SDS011;51982;51.042;13.806;2022-07-25T07:09:41;12.02;;;6.65;;
65377;SDS011;51982;51.042;13.806;2022-07-25T07:12:07;10.73;;;7.15;;
65377;SDS011;51982;51.042;13.806;2022-07-25T07:14:35;8.75;;;6.38;;
65377;SDS011;51982;51.042;13.806;2022-07-25T07:17:04;8.38;;;5.97;;
65377;SDS011;51982;51.042;13.806;2022-07-25T07:19:29;11.90;;;5.85;;
65377;SDS011;51982;51.042;13.806;2022-07-25T07:21:54;7.67;;;5.57;;
65377;SDS011;51982;51.042;13.806;2022-07-25T07:24:20;8.32;;;5.65;;
65377;SDS011;51982;51.042;13.806;2022-07-25T07:26:45;7.28;;;5.15;;
65377;SDS011;51982;51.042;13.806;2022-07-25T07:29:10;5.90;;;4.70;;
65377;SDS011;51982;51.042;13.806;2022-07-25T07:31:35;8.60;;;5.07;;
65377;SDS011;51982;51.042;13.806;2022-07-25T07:34:01;8.35;;;5.13;;
65377;SDS011;51982;51.042;13.806;2022-07-25T07:36:26;9.48;;;5.43;;
65377;SDS011;51982;51.042;13.806;2022-07-25T07:38:52;7.72;;;5.10;;
65377;SDS011;51982;51.042;13.806;2022-07-25T07:41:17;7.87;;;4.57;;
65377;SDS011;51982;51.042;13.806;2022-07-25T07:43:43;7.70;;;4.40;;
65377;SDS011;51982;51.042;13.806;2022-07-25T07:46:08;8.60;;;4.75;;
65377;SDS011;51982;51.042;13.806;2022-07-25T07:48:34;10.90;;;4.53;;
65377;SDS011;51982;51.042;13.806;2022-07-25T07:51:00;5.80;;;4.15;;
65377;SDS011;51982;51.042;13.806;2022-07-25T07:53:26;7.15;;;4.47;;
65377;SDS011;51982;51.042;13.806;2022-07-25T07:56:11;6.45;;;4.00;;
65377;SDS011;51982;51.042;13.806;2022-07-25T07:58:37;8.88;;;3.92;;
65377;SDS011;51982;51.042;13.806;2022-07-25T08:01:03;9.60;;;3.75;;
65377;SDS011;51982;51.042;13.806;2022-07-25T08:03:28;5.78;;;4.07;;
65377;SDS011;51982;51.042;13.806;2022-07-25T08:05:53;6.73;;;3.90;;
65377;SDS011;51982;51.042;13.806;2022-07-25T08:08:19;6.07;;;4.10;;
65377;SDS011;51982;51.042;13.806;2022-07-25T08:10:45;10.13;;;4.00;;
65377;SDS011;51982;51.042;13.806;2022-07-25T08:15:41;6.57;;;3.90;;
65377;SDS011;51982;51.042;13.806;2022-07-25T08:18:07;11.88;;;4.22;;
65377;SDS011;51982;51.042;13.806;2022-07-25T08:20:33;4.80;;;4.00;;
65377;SDS011;51982;51.042;13.806;2022-07-25T08:22:58;6.93;;;3.78;;
65377;SDS011;51982;51.042;13.806;2022-07-25T08:25:23;6.38;;;4.10;;
65377;SDS011;51982;51.042;13.806;2022-07-25T08:27:49;6.03;;;4.35;;
65377;SDS011;51982;51.042;13.806;2022-07-25T08:30:15;5.70;;;3.97;;
65377;SDS011;51982;51.042;13.806;2022-07-25T08:35:17;4.53;;;3.60;;
65377;SDS011;51982;51.042;13.806;2022-07-25T08:37:43;5.60;;;4.10;;
65377;SDS011;51982;51.042;13.806;2022-07-25T08:40:09;4.82;;;3.88;;
65377;SDS011;51982;51.042;13.806;2022-07-25T08:42:36;5.30;;;4.07;;
65377;SDS011;51982;51.042;13.806;2022-07-25T08:45:02;6.35;;;3.88;;
65377;SDS011;51982;51.042;13.806;2022-07-25T08:47:29;11.80;;;3.97;;
65377;SDS011;51982;51.042;13.806;2022-07-25T08:49:55;6.57;;;3.83;;
65377;SDS011;51982;51.042;13.806;2022-07-25T08:52:21;4.13;;;3.72;;
65377;SDS011;51982;51.042;13.806;2022-07-25T08:54:48;7.78;;;3.90;;
65377;SDS011;51982;51.042;13.806;2022-07-25T08:57:14;5.22;;;3.85;;
65377;SDS011;51982;51.042;13.806;2022-07-25T08:59:40;6.18;;;4.00;;
65377;SDS011;51982;51.042;13.806;2022-07-25T09:02:06;6.93;;;3.97;;
65377;SDS011;51982;51.042;13.806;2022-07-25T09:04:34;6.22;;;3.92;;
65377;SDS011;51982;51.042;13.806;2022-07-25T09:07:00;5.72;;;4.03;;
65377;SDS011;51982;51.042;13.806;2022-07-25T09:09:37;4.75;;;4.05;;
65377;SDS011;51982;51.042;13.806;2022-07-25T09:12:04;8.02;;;4.45;;
65377;SDS011;51982;51.042;13.806;2022-07-25T09:14:39;6.78;;;4.15;;
65377;SDS011;51982;51.042;13.806;2022-07-25T09:17:06;5.80;;;4.18;;
65377;SDS011;51982;51.042;13.806;2022-07-25T09:19:31;8.25;;;4.55;;
65377;SDS011;51982;51.042;13.806;2022-07-25T09:22:06;5.43;;;4.25;;
65377;SDS011;51982;51.042;13.806;2022-07-25T09:24:32;5.45;;;4.05;;
65377;SDS011;51982;51.042;13.806;2022-07-25T09:26:59;7.57;;;4.45;;
65377;SDS011;51982;51.042;13.806;2022-07-25T09:29:27;5.57;;;4.13;;
65377;SDS011;51982;51.042;13.806;2022-07-25T09:31:55;5.28;;;4.13;;
65377;SDS011;51982;51.042;13.806;2022-07-25T09:34:31;6.63;;;4.50;;
65377;SDS011;51982;51.042;13.806;2022-07-25T09:36:58;5.43;;;4.30;;
65377;SDS011;51982;51.042;13.806;2022-07-25T09:40:10;4.90;;;3.90;;
65377;SDS011;51982;51.042;13.806;2022-07-25T09:42:18;5.97;;;3.92;;
65377;SDS011;51982;51.042;13.806;2022-07-25T09:47:38;6.03;;;4.40;;
65377;SDS011;51982;51.042;13.806;2022-07-25T09:50:15;5.85;;;4.22;;
65377;SDS011;51982;51.042;13.806;2022-07-25T09:52:41;8.77;;;4.25;;
65377;SDS011;51982;51.042;13.806;2022-07-25T09:55:06;5.32;;;4.15;;
65377;SDS011;51982;51.042;13.806;2022-07-25T09:57:34;4.78;;;3.83;;
65377;SDS011;51982;51.042;13.806;2022-07-25T09:59:59;5.60;;;4.13;;
65377;SDS011;51982;51.042;13.806;2022-07-25T10:02:38;6.55;;;3.88;;
65377;SDS011;51982;51.042;13.806;2022-07-25T10:07:42;5.50;;;4.20;;
65377;SDS011;51982;51.042;13.806;2022-07-25T10:10:24;7.57;;;4.18;;
65377;SDS011;51982;51.042;13.806;2022-07-25T10:12:58;5.00;;;4.03;;
65377;SDS011;51982;51.042;13.806;2022-07-25T10:15:46;5.03;;;4.00;;
65377;SDS011;51982;51.042;13.806;2022-07-25T10:18:17;5.53;;;4.22;;
65377;SDS011;51982;51.042;13.806;2022-07-25T10:20:46;6.18;;;4.05;;
65377;SDS011;51982;51.042;13.806;2022-07-25T10:23:19;5.93;;;4.30;;
65377;SDS011;51982;51.042;13.806;2022-07-25T10:26:08;4.95;;;4.10;;
65377;SDS011;51982;51.042;13.806;2022-07-25T10:28:48;5.07;;;4.20;;
65377;SDS011;51982;51.042;13.806;2022-07-25T10:31:15;6.50;;;3.80;;
65377;SDS011;51982;51.042;13.806;2022-07-25T10:33:55;6.55;;;4.50;;
65377;SDS011;51982;51.042;13.806;2022-07-25T10:36:24;5.93;;;3.85;;
65377;SDS011;51982;51.042;13.806;2022-07-25T10:38:58;10.35;;;4.38;;
65377;SDS011;51982;51.042;13.806;2022-07-25T10:41:25;5.97;;;4.20;;
65377;SDS011;51982;51.042;13.806;2022-07-25T10:43:51;8.07;;;4.13;;
65377;SDS011;51982;51.042;13.806;2022-07-25T10:46:21;5.78;;;4.07;;
65377;SDS011;51982;51.042;13.806;2022-07-25T10:49:04;7.68;;;3.90;;
65377;SDS011;51982;51.042;13.806;2022-07-25T10:51:31;5.20;;;4.22;;
65377;SDS011;51982;51.042;13.806;2022-07-25T10:53:59;7.10;;;4.00;;
65377;SDS011;51982;51.042;13.806;2022-07-25T10:56:25;6.65;;;4.07;;
65377;SDS011;51982;51.042;13.806;2022-07-25T10:58:53;6.88;;;4.28;;
65377;SDS011;51982;51.042;13.806;2022-07-25T11:01:31;6.00;;;3.92;;
65377;SDS011;51982;51.042;13.806;2022-07-25T11:03:58;5.97;;;4.18;;
65377;SDS011;51982;51.042;13.806;2022-07-25T11:06:36;8.15;;;3.90;;
65377;SDS011;51982;51.042;13.806;2022-07-25T11:09:15;10.38;;;3.97;;
65377;SDS011;51982;51.042;13.806;2022-07-25T11:11:42;7.53;;;4.20;;
65377;SDS011;51982;51.042;13.806;2022-07-25T11:16:41;7.95;;;4.25;;
65377;SDS011;51982;51.042;13.806;2022-07-25T11:19:16;4.47;;;3.88;;
65377;SDS011;51982;51.042;13.806;2022-07-25T11:21:53;5.10;;;3.58;;
65377;SDS011;51982;51.042;13.806;2022-07-25T11:24:35;8.93;;;3.75;;
65377;SDS011;51982;51.042;13.806;2022-07-25T11:27:02;4.50;;;3.90;;
65377;SDS011;51982;51.042;13.806;2022-07-25T11:29:28;5.03;;;3.83;;
65377;SDS011;51982;51.042;13.806;2022-07-25T11:31:55;10.30;;;3.92;;
65377;SDS011;51982;51.042;13.806;2022-07-25T11:34:26;4.63;;;3.40;;
65377;SDS011;51982;51.042;13.806;2022-07-25T11:36:54;7.00;;;3.80;;
65377;SDS011;51982;51.042;13.806;2022-07-25T11:39:28;8.65;;;3.95;;
65377;SDS011;51982;51.042;13.806;2022-07-25T11:46:59;5.13;;;3.80;;
65377;SDS011;51982;51.042;13.806;2022-07-25T11:49:25;7.63;;;4.15;;
65377;SDS011;51982;51.042;13.806;2022-07-25T11:51:50;4.85;;;3.70;;
65377;SDS011;51982;51.042;13.806;2022-07-25T11:54:15;8.70;;;4.28;;
65377;SDS011;51982;51.042;13.806;2022-07-25T11:56:41;6.20;;;3.85;;
65377;SDS011;51982;51.042;13.806;2022-07-25T11:59:07;9.40;;;3.97;;
65377;SDS011;51982;51.042;13.806;2022-07-25T12:01:34;8.27;;;3.83;;
65377;SDS011;51982;51.042;13.806;2022-07-25T12:04:08;5.72;;;3.88;;
65377;SDS011;51982;51.042;13.806;2022-07-25T12:06:34;9.63;;;4.05;;
65377;SDS011;51982;51.042;13.806;2022-07-25T12:09:08;10.82;;;4.00;;
65377;SDS011;51982;51.042;13.806;2022-07-25T12:11:35;13.80;;;4.20;;
65377;SDS011;51982;51.042;13.806;2022-07-25T12:14:01;8.00;;;3.83;;
65377;SDS011;51982;51.042;13.806;2022-07-25T12:16:28;6.65;;;3.80;;
65377;SDS011;51982;51.042;13.806;2022-07-25T12:18:54;4.80;;;3.67;;
65377;SDS011;51982;51.042;13.806;2022-07-25T12:21:19;7.63;;;3.80;;
65377;SDS011;51982;51.042;13.806;2022-07-25T12:23:44;9.10;;;3.70;;
65377;SDS011;51982;51.042;13.806;2022-07-25T12:26:10;10.50;;;4.25;;
65377;SDS011;51982;51.042;13.806;2022-07-25T12:28:37;6.03;;;3.50;;
65377;SDS011;51982;51.042;13.806;2022-07-25T12:31:02;7.18;;;4.10;;
65377;SDS011;51982;51.042;13.806;2022-07-25T12:33:28;4.38;;;3.60;;
65377;SDS011;51982;51.042;13.806;2022-07-25T12:35:54;6.93;;;3.80;;
65377;SDS011;51982;51.042;13.806;2022-07-25T12:38:19;8.10;;;3.70;;
65377;SDS011;51982;51.042;13.806;2022-07-25T12:40:44;7.38;;;3.50;;
65377;SDS011;51982;51.042;13.806;2022-07-25T12:43:09;4.32;;;3.42;;
65377;SDS011;51982;51.042;13.806;2022-07-25T12:45:35;5.73;;;4.00;;
65377;SDS011;51982;51.042;13.806;2022-07-25T12:48:01;7.22;;;3.75;;
65377;SDS011;51982;51.042;13.806;2022-07-25T12:50:26;7.28;;;3.63;;
65377;SDS011;51982;51.042;13.806;2022-07-25T12:52:52;4.63;;;3.50;;
65377;SDS011;51982;51.042;13.806;2022-07-25T12:55:18;12.07;;;3.90;;
65377;SDS011;51982;51.042;13.806;2022-07-25T12:57:44;4.22;;;3.60;;
65377;SDS011;51982;51.042;13.806;2022-07-25T13:00:11;8.32;;;4.10;;
65377;SDS011;51982;51.042;13.806;2022-07-25T13:02:39;10.57;;;4.13;;
65377;SDS011;51982;51.042;13.806;2022-07-25T13:05:05;6.20;;;4.00;;
65377;SDS011;51982;51.042;13.806;2022-07-25T13:07:31;5.43;;;4.10;;
65377;SDS011;51982;51.042;13.806;2022-07-25T13:09:57;7.70;;;3.90;;
65377;SDS011;51982;51.042;13.806;2022-07-25T13:12:22;6.60;;;4.10;;
65377;SDS011;51982;51.042;13.806;2022-07-25T13:14:48;8.35;;;4.00;;
65377;SDS011;51982;51.042;13.806;2022-07-25T13:17:13;6.45;;;3.78;;
65377;SDS011;51982;51.042;13.806;2022-07-25T13:19:38;10.93;;;3.87;;
65377;SDS011;51982;51.042;13.806;2022-07-25T13:22:03;8.07;;;3.97;;
65377;SDS011;51982;51.042;13.806;2022-07-25T13:24:29;5.40;;;4.32;;
65377;SDS011;51982;51.042;13.806;2022-07-25T13:26:55;6.97;;;4.05;;
65377;SDS011;51982;51.042;13.806;2022-07-25T13:29:20;6.60;;;4.05;;
65377;SDS011;51982;51.042;13.806;2022-07-25T13:31:45;4.23;;;3.73;;
65377;SDS011;51982;51.042;13.806;2022-07-25T13:34:11;7.32;;;4.25;;
65377;SDS011;51982;51.042;13.806;2022-07-25T13:36:36;5.77;;;4.20;;
65377;SDS011;51982;51.042;13.806;2022-07-25T13:39:02;5.57;;;4.05;;
65377;SDS011;51982;51.042;13.806;2022-07-25T13:41:28;5.95;;;4.10;;
65377;SDS011;51982;51.042;13.806;2022-07-25T13:43:53;4.95;;;3.78;;
65377;SDS011;51982;51.042;13.806;2022-07-25T13:46:19;4.90;;;3.72;;
65377;SDS011;51982;51.042;13.806;2022-07-25T13:48:44;10.07;;;4.15;;
65377;SDS011;51982;51.042;13.806;2022-07-25T13:51:09;7.30;;;4.43;;
65377;SDS011;51982;51.042;13.806;2022-07-25T13:53:35;7.20;;;4.03;;
65377;SDS011;51982;51.042;13.806;2022-07-25T13:56:00;7.50;;;4.03;;
65377;SDS011;51982;51.042;13.806;2022-07-25T13:58:26;11.10;;;4.18;;
65377;SDS011;51982;51.042;13.806;2022-07-25T14:00:52;8.63;;;4.10;;
65377;SDS011;51982;51.042;13.806;2022-07-25T14:03:18;7.05;;;3.88;;
65377;SDS011;51982;51.042;13.806;2022-07-25T14:05:43;6.25;;;3.95;;
65377;SDS011;51982;51.042;13.806;2022-07-25T14:08:09;7.32;;;3.88;;
65377;SDS011;51982;51.042;13.806;2022-07-25T14:10:34;7.20;;;3.90;;
65377;SDS011;51982;51.042;13.806;2022-07-25T14:12:59;7.23;;;4.00;;
65377;SDS011;51982;51.042;13.806;2022-07-25T14:15:25;7.93;;;3.85;;
65377;SDS011;51982;51.042;13.806;2022-07-25T14:17:50;4.97;;;3.78;;
65377;SDS011;51982;51.042;13.806;2022-07-25T14:20:16;6.63;;;3.60;;
65377;SDS011;51982;51.042;13.806;2022-07-25T14:22:45;6.63;;;3.83;;
65377;SDS011;51982;51.042;13.806;2022-07-25T14:25:10;5.00;;;4.32;;
65377;SDS011;51982;51.042;13.806;2022-07-25T14:27:36;6.03;;;3.53;;
65377;SDS011;51982;51.042;13.806;2022-07-25T14:30:02;9.25;;;3.58;;
65377;SDS011;51982;51.042;13.806;2022-07-25T14:32:28;6.65;;;4.00;;
65377;SDS011;51982;51.042;13.806;2022-07-25T14:34:54;8.33;;;3.93;;
65377;SDS011;51982;51.042;13.806;2022-07-25T14:37:19;5.43;;;4.00;;
65377;SDS011;51982;51.042;13.806;2022-07-25T14:39:45;5.55;;;3.60;;
65377;SDS011;51982;51.042;13.806;2022-07-25T14:42:11;5.90;;;3.60;;
65377;SDS011;51982;51.042;13.806;2022-07-25T14:44:37;10.43;;;3.70;;
65377;SDS011;51982;51.042;13.806;2022-07-25T14:47:04;6.90;;;3.80;;
65377;SDS011;51982;51.042;13.806;2022-07-25T14:49:29;7.32;;;3.60;;
65377;SDS011;51982;51.042;13.806;2022-07-25T14:51:55;7.28;;;3.60;;
65377;SDS011;51982;51.042;13.806;2022-07-25T14:54:20;6.88;;;3.70;;
65377;SDS011;51982;51.042;13.806;2022-07-25T14:56:45;8.43;;;3.63;;
65377;SDS011;51982;51.042;13.806;2022-07-25T14:59:11;6.72;;;3.58;;
65377;SDS011;51982;51.042;13.806;2022-07-25T15:01:36;6.32;;;3.88;;
65377;SDS011;51982;51.042;13.806;2022-07-25T15:04:03;5.55;;;3.85;;
65377;SDS011;51982;51.042;13.806;2022-07-25T15:06:29;6.15;;;4.03;;
65377;SDS011;51982;51.042;13.806;2022-07-25T15:08:54;9.05;;;3.92;;
65377;SDS011;51982;51.042;13.806;2022-07-25T15:11:20;3.88;;;3.40;;
65377;SDS011;51982;51.042;13.806;2022-07-25T15:13:46;6.82;;;3.55;;
65377;SDS011;51982;51.042;13.806;2022-07-25T15:16:13;6.03;;;3.70;;
65377;SDS011;51982;51.042;13.806;2022-07-25T15:18:38;6.05;;;3.60;;
65377;SDS011;51982;51.042;13.806;2022-07-25T15:21:04;7.82;;;3.60;;
65377;SDS011;51982;51.042;13.806;2022-07-25T15:23:29;7.25;;;3.67;;
65377;SDS011;51982;51.042;13.806;2022-07-25T15:25:55;6.60;;;3.93;;
65377;SDS011;51982;51.042;13.806;2022-07-25T15:28:21;6.13;;;3.58;;
65377;SDS011;51982;51.042;13.806;2022-07-25T15:30:46;7.10;;;3.67;;
65377;SDS011;51982;51.042;13.806;2022-07-25T15:33:12;6.35;;;3.58;;
65377;SDS011;51982;51.042;13.806;2022-07-25T15:35:38;7.13;;;3.70;;
65377;SDS011;51982;51.042;13.806;2022-07-25T15:38:03;8.10;;;3.93;;
65377;SDS011;51982;51.042;13.806;2022-07-25T15:40:29;8.23;;;3.58;;
65377;SDS011;51982;51.042;13.806;2022-07-25T15:42:54;6.77;;;3.90;;
65377;SDS011;51982;51.042;13.806;2022-07-25T15:45:19;4.33;;;3.60;;
65377;SDS011;51982;51.042;13.806;2022-07-25T15:47:47;5.53;;;3.53;;
65377;SDS011;51982;51.042;13.806;2022-07-25T15:50:13;6.55;;;3.67;;
65377;SDS011;51982;51.042;13.806;2022-07-25T15:52:39;4.50;;;3.40;;
65377;SDS011;51982;51.042;13.806;2022-07-25T15:55:05;7.30;;;3.55;;
65377;SDS011;51982;51.042;13.806;2022-07-25T15:57:30;6.72;;;3.45;;
65377;SDS011;51982;51.042;13.806;2022-07-25T15:59:55;7.87;;;4.10;;
65377;SDS011;51982;51.042;13.806;2022-07-25T16:02:21;6.37;;;4.13;;
65377;SDS011;51982;51.042;13.806;2022-07-25T16:04:46;5.18;;;3.50;;
65377;SDS011;51982;51.042;13.806;2022-07-25T16:07:12;12.05;;;3.80;;
65377;SDS011;51982;51.042;13.806;2022-07-25T16:09:37;5.30;;;3.60;;
65377;SDS011;51982;51.042;13.806;2022-07-25T16:12:02;5.35;;;3.67;;
65377;SDS011;51982;51.042;13.806;2022-07-25T16:14:28;7.00;;;3.88;;
65377;SDS011;51982;51.042;13.806;2022-07-25T16:16:53;8.57;;;3.78;;
65377;SDS011;51982;51.042;13.806;2022-07-25T16:19:18;8.10;;;3.83;;
65377;SDS011;51982;51.042;13.806;2022-07-25T16:21:43;4.30;;;3.77;;
65377;SDS011;51982;51.042;13.806;2022-07-25T16:24:09;6.27;;;3.23;;
65377;SDS011;51982;51.042;13.806;2022-07-25T16:26:35;8.32;;;3.38;;
65377;SDS011;51982;51.042;13.806;2022-07-25T16:29:01;6.15;;;3.60;;
65377;SDS011;51982;51.042;13.806;2022-07-25T16:31:26;8.70;;;3.30;;
65377;SDS011;51982;51.042;13.806;2022-07-25T16:33:51;6.47;;;3.72;;
65377;SDS011;51982;51.042;13.806;2022-07-25T16:36:17;4.47;;;3.23;;
65377;SDS011;51982;51.042;13.806;2022-07-25T16:38:43;4.25;;;3.38;;
65377;SDS011;51982;51.042;13.806;2022-07-25T16:41:10;5.93;;;3.45;;
65377;SDS011;51982;51.042;13.806;2022-07-25T16:43:36;7.18;;;3.58;;
65377;SDS011;51982;51.042;13.806;2022-07-25T16:46:01;5.27;;;3.50;;
65377;SDS011;51982;51.042;13.806;2022-07-25T16:48:26;8.87;;;3.50;;
65377;SDS011;51982;51.042;13.806;2022-07-25T16:50:51;7.90;;;3.60;;
65377;SDS011;51982;51.042;13.806;2022-07-25T16:53:17;5.73;;;3.40;;
65377;SDS011;51982;51.042;13.806;2022-07-25T16:55:42;4.25;;;3.47;;
65377;SDS011;51982;51.042;13.806;2022-07-25T16:58:07;5.67;;;3.47;;
65377;SDS011;51982;51.042;13.806;2022-07-25T17:00:33;3.95;;;3.13;;
65377;SDS011;51982;51.042;13.806;2022-07-25T17:02:58;10.15;;;3.47;;
65377;SDS011;51982;51.042;13.806;2022-07-25T17:05:23;3.50;;;3.20;;
65377;SDS011;51982;51.042;13.806;2022-07-25T17:07:49;6.67;;;3.40;;
65377;SDS011;51982;51.042;13.806;2022-07-25T17:10:15;5.85;;;3.60;;
65377;SDS011;51982;51.042;13.806;2022-07-25T17:12:40;4.03;;;3.60;;
65377;SDS011;51982;51.042;13.806;2022-07-25T17:15:06;6.32;;;3.72;;
65377;SDS011;51982;51.042;13.806;2022-07-25T17:17:32;7.22;;;3.20;;
65377;SDS011;51982;51.042;13.806;2022-07-25T17:19:57;5.43;;;3.42;;
65377;SDS011;51982;51.042;13.806;2022-07-25T17:22:23;6.87;;;3.30;;
65377;SDS011;51982;51.042;13.806;2022-07-25T17:24:48;6.60;;;3.60;;
65377;SDS011;51982;51.042;13.806;2022-07-25T17:27:13;6.17;;;3.27;;
65377;SDS011;51982;51.042;13.806;2022-07-25T17:29:39;5.75;;;3.40;;
65377;SDS011;51982;51.042;13.806;2022-07-25T17:32:04;7.77;;;3.20;;
65377;SDS011;51982;51.042;13.806;2022-07-25T17:34:30;6.43;;;3.58;;
65377;SDS011;51982;51.042;13.806;2022-07-25T17:36:56;6.50;;;3.65;;
65377;SDS011;51982;51.042;13.806;2022-07-25T17:39:29;8.07;;;3.50;;
65377;SDS011;51982;51.042;13.806;2022-07-25T17:41:56;5.20;;;3.33;;
65377;SDS011;51982;51.042;13.806;2022-07-25T17:44:21;6.22;;;3.38;;
65377;SDS011;51982;51.042;13.806;2022-07-25T17:46:46;4.23;;;3.17;;
65377;SDS011;51982;51.042;13.806;2022-07-25T17:49:13;4.07;;;3.42;;
65377;SDS011;51982;51.042;13.806;2022-07-25T17:51:39;4.85;;;3.60;;
65377;SDS011;51982;51.042;13.806;2022-07-25T17:54:04;7.70;;;3.40;;
65377;SDS011;51982;51.042;13.806;2022-07-25T17:56:29;4.33;;;3.50;;
65377;SDS011;51982;51.042;13.806;2022-07-25T17:58:54;6.80;;;3.53;;
65377;SDS011;51982;51.042;13.806;2022-07-25T18:01:20;6.23;;;3.10;;
65377;SDS011;51982;51.042;13.806;2022-07-25T18:03:48;6.80;;;3.27;;
65377;SDS011;51982;51.042;13.806;2022-07-25T18:06:14;4.55;;;3.53;;
65377;SDS011;51982;51.042;13.806;2022-07-25T18:08:39;7.55;;;3.38;;
65377;SDS011;51982;51.042;13.806;2022-07-25T18:11:04;5.40;;;3.60;;
65377;SDS011;51982;51.042;13.806;2022-07-25T18:13:30;5.80;;;4.25;;
65377;SDS011;51982;51.042;13.806;2022-07-25T18:15:58;10.87;;;3.80;;
65377;SDS011;51982;51.042;13.806;2022-07-25T18:18:23;6.50;;;3.50;;
65377;SDS011;51982;51.042;13.806;2022-07-25T18:20:48;18.97;;;4.17;;
65377;SDS011;51982;51.042;13.806;2022-07-25T18:23:13;29.57;;;4.60;;
65377;SDS011;51982;51.042;13.806;2022-07-25T18:25:39;25.10;;;4.87;;
65377;SDS011;51982;51.042;13.806;2022-07-25T18:28:04;41.42;;;5.57;;
65377;SDS011;51982;51.042;13.806;2022-07-25T18:30:30;28.63;;;4.53;;
65377;SDS011;51982;51.042;13.806;2022-07-25T18:32:55;18.73;;;4.38;;
65377;SDS011;51982;51.042;13.806;2022-07-25T18:35:21;19.73;;;4.45;;
65377;SDS011;51982;51.042;13.806;2022-07-25T18:37:46;29.80;;;4.65;;
65377;SDS011;51982;51.042;13.806;2022-07-25T18:40:11;17.92;;;4.40;;
65377;SDS011;51982;51.042;13.806;2022-07-25T18:42:37;14.43;;;4.35;;
65377;SDS011;51982;51.042;13.806;2022-07-25T18:45:03;12.10;;;4.13;;
65377;SDS011;51982;51.042;13.806;2022-07-25T18:47:29;19.30;;;4.53;;
65377;SDS011;51982;51.042;13.806;2022-07-25T18:49:55;15.65;;;4.72;;
65377;SDS011;51982;51.042;13.806;2022-07-25T18:52:21;19.27;;;8.90;;
65377;SDS011;51982;51.042;13.806;2022-07-25T18:54:47;31.92;;;23.27;;
65377;SDS011;51982;51.042;13.806;2022-07-25T18:57:12;62.22;;;45.58;;
65377;SDS011;51982;51.042;13.806;2022-07-25T18:59:38;94.43;;;64.22;;
65377;SDS011;51982;51.042;13.806;2022-07-25T19:02:03;88.22;;;70.60;;
65377;SDS011;51982;51.042;13.806;2022-07-25T19:04:29;101.60;;;83.95;;
65377;SDS011;51982;51.042;13.806;2022-07-25T19:06:54;125.50;;;98.50;;
65377;SDS011;51982;51.042;13.806;2022-07-25T19:09:20;128.80;;;103.63;;
65377;SDS011;51982;51.042;13.806;2022-07-25T19:11:45;143.90;;;122.20;;
65377;SDS011;51982;51.042;13.806;2022-07-25T19:14:11;147.45;;;128.18;;
65377;SDS011;51982;51.042;13.806;2022-07-25T19:16:37;141.27;;;123.65;;
65377;SDS011;51982;51.042;13.806;2022-07-25T19:19:02;151.67;;;129.37;;
65377;SDS011;51982;51.042;13.806;2022-07-25T19:21:27;144.55;;;122.20;;
65377;SDS011;51982;51.042;13.806;2022-07-25T19:23:53;139.68;;;117.78;;
65377;SDS011;51982;51.042;13.806;2022-07-25T19:26:18;138.07;;;109.55;;
65377;SDS011;51982;51.042;13.806;2022-07-25T19:28:44;161.50;;;132.77;;
65377;SDS011;51982;51.042;13.806;2022-07-25T19:31:10;156.60;;;136.02;;
65377;SDS011;51982;51.042;13.806;2022-07-25T19:33:35;164.20;;;142.77;;
65377;SDS011;51982;51.042;13.806;2022-07-25T19:36:01;169.07;;;146.83;;
65377;SDS011;51982;51.042;13.806;2022-07-25T19:38:26;182.48;;;155.27;;
65377;SDS011;51982;51.042;13.806;2022-07-25T19:40:51;189.68;;;167.60;;
65377;SDS011;51982;51.042;13.806;2022-07-25T19:43:16;191.20;;;164.67;;
65377;SDS011;51982;51.042;13.806;2022-07-25T19:45:42;189.23;;;167.83;;